sensor_id;sensor_type;location;lat;lon;timestamp;P1;durP1;ratioP1;P2;durP2;ratioP2
21472;SDS011;10898;48.072;11.682;2022-09-09T00:00:15;1.60;;;1.50;;
21472;SDS011;10898;48.072;11.682;2022-09-09T00:04:32;4.20;;;1.65;;
21472;SDS011;10898;48.072;11.682;2022-09-09T00:08:51;1.85;;;1.45;;
21472;SDS011;10898;48.072;11.682;2022-09-09T00:11:07;1.75;;;1.63;;
21472;SDS011;10898;48.072;11.682;2022-09-09T00:15:41;1.67;;;1.58;;
21472;SDS011;10898;48.072;11.682;2022-09-09T00:18:07;2.45;;;1.70;;
21472;SDS011;10898;48.072;11.682;2022-09-09T00:25:34;3.42;;;1.70;;
21472;SDS011;10898;48.072;11.682;2022-09-09T00:27:46;2.63;;;1.70;;
21472;SDS011;10898;48.072;11.682;2022-09-09T00:29:54;2.75;;;1.77;;
21472;SDS011;10898;48.072;11.682;2022-09-09T00:32:17;4.15;;;1.70;;
21472;SDS011;10898;48.072;11.682;2022-09-09T00:36:24;1.40;;;1.30;;
21472;SDS011;10898;48.072;11.682;2022-09-09T00:41:22;1.90;;;1.67;;
21472;SDS011;10898;48.072;11.682;2022-09-09T00:43:09;1.70;;;1.60;;
21472;SDS011;10898;48.072;11.682;2022-09-09T00:47:39;2.25;;;1.63;;
21472;SDS011;10898;48.072;11.682;2022-09-09T00:52:39;3.83;;;1.38;;
21472;SDS011;10898;48.072;11.682;2022-09-09T00:55:07;1.30;;;1.20;;
21472;SDS011;10898;48.072;11.682;2022-09-09T00:57:21;3.13;;;1.40;;
21472;SDS011;10898;48.072;11.682;2022-09-09T00:59:30;1.63;;;1.30;;
21472;SDS011;10898;48.072;11.682;2022-09-09T01:01:37;3.05;;;1.80;;
21472;SDS011;10898;48.072;11.682;2022-09-09T01:03:46;2.08;;;1.20;;
21472;SDS011;10898;48.072;11.682;2022-09-09T01:05:57;3.13;;;1.30;;
21472;SDS011;10898;48.072;11.682;2022-09-09T01:10:55;3.38;;;1.35;;
21472;SDS011;10898;48.072;11.682;2022-09-09T01:12:59;2.35;;;1.48;;
21472;SDS011;10898;48.072;11.682;2022-09-09T01:15:11;1.45;;;1.33;;
21472;SDS011;10898;48.072;11.682;2022-09-09T01:17:28;1.70;;;1.35;;
21472;SDS011;10898;48.072;11.682;2022-09-09T01:22:06;3.20;;;1.35;;
21472;SDS011;10898;48.072;11.682;2022-09-09T01:26:41;3.63;;;1.40;;
21472;SDS011;10898;48.072;11.682;2022-09-09T01:28:44;2.80;;;1.30;;
21472;SDS011;10898;48.072;11.682;2022-09-09T01:30:48;3.50;;;1.25;;
21472;SDS011;10898;48.072;11.682;2022-09-09T01:32:53;3.35;;;1.30;;
21472;SDS011;10898;48.072;11.682;2022-09-09T01:34:57;2.38;;;1.40;;
21472;SDS011;10898;48.072;11.682;2022-09-09T01:39:08;1.58;;;1.42;;
21472;SDS011;10898;48.072;11.682;2022-09-09T01:41:10;1.83;;;1.30;;
21472;SDS011;10898;48.072;11.682;2022-09-09T01:43:12;2.70;;;1.30;;
21472;SDS011;10898;48.072;11.682;2022-09-09T01:45:14;1.63;;;1.52;;
21472;SDS011;10898;48.072;11.682;2022-09-09T01:47:16;2.53;;;1.30;;
21472;SDS011;10898;48.072;11.682;2022-09-09T01:49:18;2.58;;;1.38;;
21472;SDS011;10898;48.072;11.682;2022-09-09T01:51:21;1.52;;;1.30;;
21472;SDS011;10898;48.072;11.682;2022-09-09T01:53:23;2.67;;;1.55;;
21472;SDS011;10898;48.072;11.682;2022-09-09T01:55:45;2.67;;;1.40;;
21472;SDS011;10898;48.072;11.682;2022-09-09T02:00:27;2.45;;;1.73;;
21472;SDS011;10898;48.072;11.682;2022-09-09T02:07:33;4.53;;;1.50;;
21472;SDS011;10898;48.072;11.682;2022-09-09T02:09:34;2.05;;;1.23;;
21472;SDS011;10898;48.072;11.682;2022-09-09T02:11:40;4.00;;;1.30;;
21472;SDS011;10898;48.072;11.682;2022-09-09T02:13:44;2.20;;;1.45;;
21472;SDS011;10898;48.072;11.682;2022-09-09T02:17:53;2.22;;;1.48;;
21472;SDS011;10898;48.072;11.682;2022-09-09T02:20:00;4.20;;;1.20;;
21472;SDS011;10898;48.072;11.682;2022-09-09T02:22:08;3.08;;;1.30;;
21472;SDS011;10898;48.072;11.682;2022-09-09T02:24:11;1.48;;;1.38;;
21472;SDS011;10898;48.072;11.682;2022-09-09T02:26:16;3.30;;;1.48;;
21472;SDS011;10898;48.072;11.682;2022-09-09T02:28:20;3.70;;;1.50;;
21472;SDS011;10898;48.072;11.682;2022-09-09T02:30:27;1.98;;;1.20;;
21472;SDS011;10898;48.072;11.682;2022-09-09T02:32:31;2.63;;;1.42;;
21472;SDS011;10898;48.072;11.682;2022-09-09T02:34:35;3.97;;;1.23;;
21472;SDS011;10898;48.072;11.682;2022-09-09T02:36:41;2.22;;;1.10;;
21472;SDS011;10898;48.072;11.682;2022-09-09T02:38:46;2.75;;;1.15;;
21472;SDS011;10898;48.072;11.682;2022-09-09T02:40:54;1.50;;;1.40;;
21472;SDS011;10898;48.072;11.682;2022-09-09T02:42:56;3.17;;;1.58;;
21472;SDS011;10898;48.072;11.682;2022-09-09T02:44:57;1.55;;;1.00;;
21472;SDS011;10898;48.072;11.682;2022-09-09T02:49:10;4.70;;;1.50;;
21472;SDS011;10898;48.072;11.682;2022-09-09T02:51:39;1.83;;;1.25;;
21472;SDS011;10898;48.072;11.682;2022-09-09T02:53:43;1.55;;;1.10;;
21472;SDS011;10898;48.072;11.682;2022-09-09T02:58:01;1.85;;;1.40;;
21472;SDS011;10898;48.072;11.682;2022-09-09T03:00:07;2.25;;;1.17;;
21472;SDS011;10898;48.072;11.682;2022-09-09T03:02:09;3.10;;;1.25;;
21472;SDS011;10898;48.072;11.682;2022-09-09T03:04:12;2.92;;;1.25;;
21472;SDS011;10898;48.072;11.682;2022-09-09T03:06:14;1.83;;;1.20;;
21472;SDS011;10898;48.072;11.682;2022-09-09T03:08:16;1.92;;;1.23;;
21472;SDS011;10898;48.072;11.682;2022-09-09T03:10:18;3.17;;;1.40;;
21472;SDS011;10898;48.072;11.682;2022-09-09T03:12:20;1.73;;;1.63;;
21472;SDS011;10898;48.072;11.682;2022-09-09T03:14:22;3.72;;;1.50;;
21472;SDS011;10898;48.072;11.682;2022-09-09T03:16:26;2.72;;;1.25;;
21472;SDS011;10898;48.072;11.682;2022-09-09T03:18:28;2.45;;;1.23;;
21472;SDS011;10898;48.072;11.682;2022-09-09T03:20:30;1.58;;;1.15;;
21472;SDS011;10898;48.072;11.682;2022-09-09T03:22:31;2.67;;;1.20;;
21472;SDS011;10898;48.072;11.682;2022-09-09T03:24:34;2.92;;;1.33;;
21472;SDS011;10898;48.072;11.682;2022-09-09T03:26:35;1.85;;;1.23;;
21472;SDS011;10898;48.072;11.682;2022-09-09T03:28:38;1.67;;;1.10;;
21472;SDS011;10898;48.072;11.682;2022-09-09T03:30:40;1.73;;;1.30;;
21472;SDS011;10898;48.072;11.682;2022-09-09T03:32:42;1.88;;;1.30;;
21472;SDS011;10898;48.072;11.682;2022-09-09T03:34:49;1.08;;;1.00;;
21472;SDS011;10898;48.072;11.682;2022-09-09T03:36:50;3.92;;;1.30;;
21472;SDS011;10898;48.072;11.682;2022-09-09T03:38:52;2.85;;;1.23;;
21472;SDS011;10898;48.072;11.682;2022-09-09T03:40:56;1.98;;;1.40;;
21472;SDS011;10898;48.072;11.682;2022-09-09T03:43:01;1.85;;;1.10;;
21472;SDS011;10898;48.072;11.682;2022-09-09T03:45:03;1.50;;;1.17;;
21472;SDS011;10898;48.072;11.682;2022-09-09T03:47:06;4.18;;;2.80;;
21472;SDS011;10898;48.072;11.682;2022-09-09T03:49:08;4.20;;;3.05;;
21472;SDS011;10898;48.072;11.682;2022-09-09T03:51:11;7.47;;;4.18;;
21472;SDS011;10898;48.072;11.682;2022-09-09T03:53:14;4.32;;;3.42;;
21472;SDS011;10898;48.072;11.682;2022-09-09T03:55:16;5.32;;;3.78;;
21472;SDS011;10898;48.072;11.682;2022-09-09T03:57:18;5.45;;;3.85;;
21472;SDS011;10898;48.072;11.682;2022-09-09T04:01:24;4.40;;;3.75;;
21472;SDS011;10898;48.072;11.682;2022-09-09T04:03:26;4.40;;;3.03;;
21472;SDS011;10898;48.072;11.682;2022-09-09T04:05:28;5.50;;;2.65;;
21472;SDS011;10898;48.072;11.682;2022-09-09T04:07:30;4.22;;;2.35;;
21472;SDS011;10898;48.072;11.682;2022-09-09T04:09:33;4.50;;;1.40;;
21472;SDS011;10898;48.072;11.682;2022-09-09T04:11:36;1.58;;;1.42;;
21472;SDS011;10898;48.072;11.682;2022-09-09T04:13:38;2.53;;;1.70;;
21472;SDS011;10898;48.072;11.682;2022-09-09T04:15:40;2.45;;;1.70;;
21472;SDS011;10898;48.072;11.682;2022-09-09T04:17:42;1.88;;;1.55;;
21472;SDS011;10898;48.072;11.682;2022-09-09T04:19:44;1.60;;;1.50;;
21472;SDS011;10898;48.072;11.682;2022-09-09T04:21:46;4.80;;;1.38;;
21472;SDS011;10898;48.072;11.682;2022-09-09T04:23:51;2.83;;;1.17;;
21472;SDS011;10898;48.072;11.682;2022-09-09T04:25:53;4.25;;;1.63;;
21472;SDS011;10898;48.072;11.682;2022-09-09T04:27:56;3.33;;;1.38;;
21472;SDS011;10898;48.072;11.682;2022-09-09T04:29:59;2.80;;;1.48;;
21472;SDS011;10898;48.072;11.682;2022-09-09T04:32:01;2.60;;;1.50;;
21472;SDS011;10898;48.072;11.682;2022-09-09T04:34:02;1.98;;;1.40;;
21472;SDS011;10898;48.072;11.682;2022-09-09T04:36:06;2.83;;;1.38;;
21472;SDS011;10898;48.072;11.682;2022-09-09T04:38:08;1.48;;;1.38;;
21472;SDS011;10898;48.072;11.682;2022-09-09T04:40:10;1.42;;;1.30;;
21472;SDS011;10898;48.072;11.682;2022-09-09T04:42:12;2.30;;;1.17;;
21472;SDS011;10898;48.072;11.682;2022-09-09T04:44:14;3.03;;;1.20;;
21472;SDS011;10898;48.072;11.682;2022-09-09T04:46:16;3.55;;;1.17;;
21472;SDS011;10898;48.072;11.682;2022-09-09T04:48:19;1.23;;;1.10;;
21472;SDS011;10898;48.072;11.682;2022-09-09T04:50:22;4.20;;;1.17;;
21472;SDS011;10898;48.072;11.682;2022-09-09T04:52:24;1.30;;;1.20;;
21472;SDS011;10898;48.072;11.682;2022-09-09T04:54:25;3.40;;;1.17;;
21472;SDS011;10898;48.072;11.682;2022-09-09T04:56:28;1.42;;;1.10;;
21472;SDS011;10898;48.072;11.682;2022-09-09T04:58:30;1.60;;;1.13;;
21472;SDS011;10898;48.072;11.682;2022-09-09T05:02:37;1.92;;;1.02;;
21472;SDS011;10898;48.072;11.682;2022-09-09T05:04:39;2.10;;;1.27;;
21472;SDS011;10898;48.072;11.682;2022-09-09T05:06:41;1.30;;;1.20;;
21472;SDS011;10898;48.072;11.682;2022-09-09T05:08:43;3.55;;;1.35;;
21472;SDS011;10898;48.072;11.682;2022-09-09T05:10:46;2.75;;;1.10;;
21472;SDS011;10898;48.072;11.682;2022-09-09T05:12:53;2.30;;;1.35;;
21472;SDS011;10898;48.072;11.682;2022-09-09T05:14:55;4.85;;;1.77;;
21472;SDS011;10898;48.072;11.682;2022-09-09T05:16:57;5.18;;;2.00;;
21472;SDS011;10898;48.072;11.682;2022-09-09T05:18:59;3.65;;;2.08;;
21472;SDS011;10898;48.072;11.682;2022-09-09T05:21:01;2.55;;;1.60;;
21472;SDS011;10898;48.072;11.682;2022-09-09T05:23:03;1.87;;;1.70;;
21472;SDS011;10898;48.072;11.682;2022-09-09T05:25:04;3.70;;;1.88;;
21472;SDS011;10898;48.072;11.682;2022-09-09T05:27:07;4.05;;;1.75;;
21472;SDS011;10898;48.072;11.682;2022-09-09T05:29:08;1.50;;;1.40;;
21472;SDS011;10898;48.072;11.682;2022-09-09T05:31:11;3.83;;;1.77;;
21472;SDS011;10898;48.072;11.682;2022-09-09T05:33:14;2.42;;;1.40;;
21472;SDS011;10898;48.072;11.682;2022-09-09T05:35:16;2.75;;;1.35;;
21472;SDS011;10898;48.072;11.682;2022-09-09T05:37:20;1.83;;;1.50;;
21472;SDS011;10898;48.072;11.682;2022-09-09T05:39:21;2.05;;;1.27;;
21472;SDS011;10898;48.072;11.682;2022-09-09T05:41:23;3.08;;;1.23;;
21472;SDS011;10898;48.072;11.682;2022-09-09T05:43:25;3.45;;;1.83;;
21472;SDS011;10898;48.072;11.682;2022-09-09T05:47:29;3.10;;;1.45;;
21472;SDS011;10898;48.072;11.682;2022-09-09T05:49:31;2.33;;;1.48;;
21472;SDS011;10898;48.072;11.682;2022-09-09T05:51:33;4.82;;;1.40;;
21472;SDS011;10898;48.072;11.682;2022-09-09T05:53:35;1.73;;;1.50;;
21472;SDS011;10898;48.072;11.682;2022-09-09T05:55:37;3.50;;;1.13;;
21472;SDS011;10898;48.072;11.682;2022-09-09T05:57:39;2.97;;;1.30;;
21472;SDS011;10898;48.072;11.682;2022-09-09T05:59:41;2.15;;;1.15;;
21472;SDS011;10898;48.072;11.682;2022-09-09T06:01:43;2.28;;;1.33;;
21472;SDS011;10898;48.072;11.682;2022-09-09T06:03:47;3.25;;;1.55;;
21472;SDS011;10898;48.072;11.682;2022-09-09T06:05:56;1.77;;;1.00;;
21472;SDS011;10898;48.072;11.682;2022-09-09T06:07:59;4.07;;;1.40;;
21472;SDS011;10898;48.072;11.682;2022-09-09T06:10:01;5.80;;;1.70;;
21472;SDS011;10898;48.072;11.682;2022-09-09T06:12:03;1.70;;;1.40;;
21472;SDS011;10898;48.072;11.682;2022-09-09T06:14:06;1.92;;;1.42;;
21472;SDS011;10898;48.072;11.682;2022-09-09T06:16:09;1.73;;;1.10;;
21472;SDS011;10898;48.072;11.682;2022-09-09T06:18:12;2.15;;;1.10;;
21472;SDS011;10898;48.072;11.682;2022-09-09T06:20:14;2.03;;;1.40;;
21472;SDS011;10898;48.072;11.682;2022-09-09T06:22:16;2.47;;;1.20;;
21472;SDS011;10898;48.072;11.682;2022-09-09T06:24:18;2.80;;;1.20;;
21472;SDS011;10898;48.072;11.682;2022-09-09T06:26:24;2.42;;;0.90;;
21472;SDS011;10898;48.072;11.682;2022-09-09T06:30:36;2.03;;;1.00;;
21472;SDS011;10898;48.072;11.682;2022-09-09T06:34:41;2.95;;;1.25;;
21472;SDS011;10898;48.072;11.682;2022-09-09T06:36:43;1.48;;;1.02;;
21472;SDS011;10898;48.072;11.682;2022-09-09T06:38:45;2.58;;;1.00;;
21472;SDS011;10898;48.072;11.682;2022-09-09T06:40:51;2.22;;;1.10;;
21472;SDS011;10898;48.072;11.682;2022-09-09T06:42:58;2.75;;;1.40;;
21472;SDS011;10898;48.072;11.682;2022-09-09T06:45:01;2.80;;;1.20;;
21472;SDS011;10898;48.072;11.682;2022-09-09T06:47:03;2.80;;;1.20;;
21472;SDS011;10898;48.072;11.682;2022-09-09T06:49:05;3.67;;;1.20;;
21472;SDS011;10898;48.072;11.682;2022-09-09T06:53:12;3.65;;;0.93;;
21472;SDS011;10898;48.072;11.682;2022-09-09T06:55:17;2.03;;;1.00;;
21472;SDS011;10898;48.072;11.682;2022-09-09T06:57:19;2.10;;;1.02;;
21472;SDS011;10898;48.072;11.682;2022-09-09T06:59:37;1.35;;;1.00;;
21472;SDS011;10898;48.072;11.682;2022-09-09T07:01:40;2.15;;;0.82;;
21472;SDS011;10898;48.072;11.682;2022-09-09T07:03:45;1.00;;;0.90;;
21472;SDS011;10898;48.072;11.682;2022-09-09T07:05:55;1.27;;;1.00;;
21472;SDS011;10898;48.072;11.682;2022-09-09T07:07:58;0.90;;;0.90;;
21472;SDS011;10898;48.072;11.682;2022-09-09T07:09:59;1.65;;;1.10;;
21472;SDS011;10898;48.072;11.682;2022-09-09T07:12:01;2.90;;;1.30;;
21472;SDS011;10898;48.072;11.682;2022-09-09T07:14:03;1.42;;;1.00;;
21472;SDS011;10898;48.072;11.682;2022-09-09T07:16:07;1.27;;;0.80;;
21472;SDS011;10898;48.072;11.682;2022-09-09T07:18:10;2.83;;;0.95;;
21472;SDS011;10898;48.072;11.682;2022-09-09T07:20:12;1.35;;;0.95;;
21472;SDS011;10898;48.072;11.682;2022-09-09T07:22:15;2.50;;;1.05;;
21472;SDS011;10898;48.072;11.682;2022-09-09T07:24:17;6.03;;;1.80;;
21472;SDS011;10898;48.072;11.682;2022-09-09T07:26:20;3.50;;;1.67;;
21472;SDS011;10898;48.072;11.682;2022-09-09T07:28:24;2.20;;;1.40;;
21472;SDS011;10898;48.072;11.682;2022-09-09T07:30:27;12.63;;;2.88;;
21472;SDS011;10898;48.072;11.682;2022-09-09T07:32:29;13.68;;;3.08;;
21472;SDS011;10898;48.072;11.682;2022-09-09T07:34:31;12.35;;;2.78;;
21472;SDS011;10898;48.072;11.682;2022-09-09T07:36:34;14.95;;;3.35;;
21472;SDS011;10898;48.072;11.682;2022-09-09T07:38:41;16.60;;;2.22;;
21472;SDS011;10898;48.072;11.682;2022-09-09T07:40:46;2.35;;;1.38;;
21472;SDS011;10898;48.072;11.682;2022-09-09T07:42:48;2.90;;;1.30;;
21472;SDS011;10898;48.072;11.682;2022-09-09T07:44:49;5.53;;;1.23;;
21472;SDS011;10898;48.072;11.682;2022-09-09T07:46:55;2.22;;;1.10;;
21472;SDS011;10898;48.072;11.682;2022-09-09T07:48:57;3.80;;;1.10;;
21472;SDS011;10898;48.072;11.682;2022-09-09T07:51:19;3.93;;;1.03;;
21472;SDS011;10898;48.072;11.682;2022-09-09T07:53:23;1.25;;;1.00;;
21472;SDS011;10898;48.072;11.682;2022-09-09T07:55:25;1.65;;;1.17;;
21472;SDS011;10898;48.072;11.682;2022-09-09T07:57:30;1.67;;;1.10;;
21472;SDS011;10898;48.072;11.682;2022-09-09T07:59:32;0.95;;;0.80;;
21472;SDS011;10898;48.072;11.682;2022-09-09T08:01:35;1.20;;;1.02;;
21472;SDS011;10898;48.072;11.682;2022-09-09T08:03:40;1.70;;;1.02;;
21472;SDS011;10898;48.072;11.682;2022-09-09T08:05:42;3.05;;;0.93;;
21472;SDS011;10898;48.072;11.682;2022-09-09T08:07:44;1.50;;;0.90;;
21472;SDS011;10898;48.072;11.682;2022-09-09T08:09:46;2.90;;;0.90;;
21472;SDS011;10898;48.072;11.682;2022-09-09T08:11:48;0.73;;;0.73;;
21472;SDS011;10898;48.072;11.682;2022-09-09T08:13:50;1.42;;;0.98;;
21472;SDS011;10898;48.072;11.682;2022-09-09T08:16:02;1.90;;;0.80;;
21472;SDS011;10898;48.072;11.682;2022-09-09T08:20:10;3.28;;;0.80;;
21472;SDS011;10898;48.072;11.682;2022-09-09T08:22:12;0.63;;;0.63;;
21472;SDS011;10898;48.072;11.682;2022-09-09T08:24:14;3.80;;;0.82;;
21472;SDS011;10898;48.072;11.682;2022-09-09T08:26:17;1.67;;;0.90;;
21472;SDS011;10898;48.072;11.682;2022-09-09T08:28:23;2.10;;;0.60;;
21472;SDS011;10898;48.072;11.682;2022-09-09T08:30:25;2.58;;;0.70;;
21472;SDS011;10898;48.072;11.682;2022-09-09T08:32:27;2.88;;;0.93;;
21472;SDS011;10898;48.072;11.682;2022-09-09T08:34:30;1.98;;;1.00;;
21472;SDS011;10898;48.072;11.682;2022-09-09T08:36:34;6.10;;;1.08;;
21472;SDS011;10898;48.072;11.682;2022-09-09T08:38:38;1.13;;;0.90;;
21472;SDS011;10898;48.072;11.682;2022-09-09T08:40:40;1.23;;;0.68;;
21472;SDS011;10898;48.072;11.682;2022-09-09T08:42:51;0.95;;;0.80;;
21472;SDS011;10898;48.072;11.682;2022-09-09T08:49:31;2.75;;;1.00;;
21472;SDS011;10898;48.072;11.682;2022-09-09T08:54:01;1.88;;;0.90;;
21472;SDS011;10898;48.072;11.682;2022-09-09T08:56:09;1.90;;;0.80;;
21472;SDS011;10898;48.072;11.682;2022-09-09T08:58:18;1.38;;;0.90;;
21472;SDS011;10898;48.072;11.682;2022-09-09T09:00:22;2.25;;;0.95;;
21472;SDS011;10898;48.072;11.682;2022-09-09T09:02:42;2.58;;;1.10;;
21472;SDS011;10898;48.072;11.682;2022-09-09T09:07:25;1.42;;;1.10;;
21472;SDS011;10898;48.072;11.682;2022-09-09T09:09:51;1.08;;;0.95;;
21472;SDS011;10898;48.072;11.682;2022-09-09T09:12:00;2.88;;;1.02;;
21472;SDS011;10898;48.072;11.682;2022-09-09T09:14:07;3.25;;;0.98;;
21472;SDS011;10898;48.072;11.682;2022-09-09T09:16:16;1.30;;;1.20;;
21472;SDS011;10898;48.072;11.682;2022-09-09T09:18:23;1.90;;;1.40;;
21472;SDS011;10898;48.072;11.682;2022-09-09T09:20:31;3.45;;;1.30;;
21472;SDS011;10898;48.072;11.682;2022-09-09T09:22:48;2.95;;;1.40;;
21472;SDS011;10898;48.072;11.682;2022-09-09T09:24:53;2.10;;;1.25;;
21472;SDS011;10898;48.072;11.682;2022-09-09T09:26:56;2.63;;;1.30;;
21472;SDS011;10898;48.072;11.682;2022-09-09T09:29:10;1.73;;;0.90;;
21472;SDS011;10898;48.072;11.682;2022-09-09T09:31:13;4.35;;;1.30;;
21472;SDS011;10898;48.072;11.682;2022-09-09T09:33:23;2.05;;;1.17;;
21472;SDS011;10898;48.072;11.682;2022-09-09T09:35:28;2.40;;;1.33;;
21472;SDS011;10898;48.072;11.682;2022-09-09T09:37:31;3.88;;;1.27;;
21472;SDS011;10898;48.072;11.682;2022-09-09T09:39:36;4.82;;;1.58;;
21472;SDS011;10898;48.072;11.682;2022-09-09T09:42:07;6.00;;;1.30;;
21472;SDS011;10898;48.072;11.682;2022-09-09T09:44:21;2.22;;;1.35;;
21472;SDS011;10898;48.072;11.682;2022-09-09T09:46:24;3.35;;;1.45;;
21472;SDS011;10898;48.072;11.682;2022-09-09T09:48:27;1.90;;;1.38;;
21472;SDS011;10898;48.072;11.682;2022-09-09T09:50:29;2.38;;;1.35;;
21472;SDS011;10898;48.072;11.682;2022-09-09T09:52:32;1.65;;;1.20;;
21472;SDS011;10898;48.072;11.682;2022-09-09T09:54:39;1.55;;;0.95;;
21472;SDS011;10898;48.072;11.682;2022-09-09T09:56:43;1.67;;;1.05;;
21472;SDS011;10898;48.072;11.682;2022-09-09T10:00:51;1.05;;;0.93;;
21472;SDS011;10898;48.072;11.682;2022-09-09T10:02:54;2.28;;;0.93;;
21472;SDS011;10898;48.072;11.682;2022-09-09T10:05:05;1.58;;;0.90;;
21472;SDS011;10898;48.072;11.682;2022-09-09T10:07:19;2.05;;;1.00;;
21472;SDS011;10898;48.072;11.682;2022-09-09T10:20:52;2.88;;;1.00;;
21472;SDS011;10898;48.072;11.682;2022-09-09T10:37:03;2.75;;;1.00;;
21472;SDS011;10898;48.072;11.682;2022-09-09T10:51:35;2.25;;;0.70;;
21472;SDS011;10898;48.072;11.682;2022-09-09T10:53:35;2.05;;;0.70;;
21472;SDS011;10898;48.072;11.682;2022-09-09T10:56:04;1.75;;;0.80;;
21472;SDS011;10898;48.072;11.682;2022-09-09T10:58:18;3.70;;;0.90;;
21472;SDS011;10898;48.072;11.682;2022-09-09T11:00:40;2.38;;;0.90;;
21472;SDS011;10898;48.072;11.682;2022-09-09T11:03:01;2.88;;;1.10;;
21472;SDS011;10898;48.072;11.682;2022-09-09T11:07:07;2.43;;;0.77;;
21472;SDS011;10898;48.072;11.682;2022-09-09T11:09:17;0.82;;;0.80;;
21472;SDS011;10898;48.072;11.682;2022-09-09T11:11:27;0.60;;;0.60;;
21472;SDS011;10898;48.072;11.682;2022-09-09T11:13:42;1.13;;;0.68;;
21472;SDS011;10898;48.072;11.682;2022-09-09T11:15:46;1.45;;;0.82;;
21472;SDS011;10898;48.072;11.682;2022-09-09T11:17:53;0.90;;;0.70;;
21472;SDS011;10898;48.072;11.682;2022-09-09T11:19:58;2.25;;;0.75;;
21472;SDS011;10898;48.072;11.682;2022-09-09T11:22:33;0.80;;;0.65;;
21472;SDS011;10898;48.072;11.682;2022-09-09T11:26:44;2.00;;;0.70;;
21472;SDS011;10898;48.072;11.682;2022-09-09T11:38:41;0.70;;;0.70;;
21472;SDS011;10898;48.072;11.682;2022-09-09T11:40:53;0.85;;;0.60;;
21472;SDS011;10898;48.072;11.682;2022-09-09T11:43:03;1.25;;;0.60;;
21472;SDS011;10898;48.072;11.682;2022-09-09T11:47:29;0.88;;;0.50;;
21472;SDS011;10898;48.072;11.682;2022-09-09T11:51:40;1.15;;;0.60;;
21472;SDS011;10898;48.072;11.682;2022-09-09T11:53:48;1.83;;;0.60;;
21472;SDS011;10898;48.072;11.682;2022-09-09T11:58:15;2.10;;;0.70;;
21472;SDS011;10898;48.072;11.682;2022-09-09T12:02:54;0.63;;;0.50;;
21472;SDS011;10898;48.072;11.682;2022-09-09T12:05:01;0.75;;;0.70;;
21472;SDS011;10898;48.072;11.682;2022-09-09T12:11:33;1.88;;;0.68;;
21472;SDS011;10898;48.072;11.682;2022-09-09T12:13:34;0.60;;;0.60;;
21472;SDS011;10898;48.072;11.682;2022-09-09T12:15:46;1.58;;;0.60;;
21472;SDS011;10898;48.072;11.682;2022-09-09T12:17:49;2.38;;;0.70;;
21472;SDS011;10898;48.072;11.682;2022-09-09T12:20:36;1.85;;;0.55;;
21472;SDS011;10898;48.072;11.682;2022-09-09T12:22:24;1.88;;;0.70;;
21472;SDS011;10898;48.072;11.682;2022-09-09T12:24:57;1.70;;;0.90;;
21472;SDS011;10898;48.072;11.682;2022-09-09T12:27:26;3.05;;;0.93;;
21472;SDS011;10898;48.072;11.682;2022-09-09T12:29:38;0.90;;;0.60;;
21472;SDS011;10898;48.072;11.682;2022-09-09T12:34:10;0.80;;;0.60;;
21472;SDS011;10898;48.072;11.682;2022-09-09T12:36:15;0.60;;;0.60;;
21472;SDS011;10898;48.072;11.682;2022-09-09T12:38:37;0.80;;;0.80;;
21472;SDS011;10898;48.072;11.682;2022-09-09T12:40:41;0.52;;;0.52;;
21472;SDS011;10898;48.072;11.682;2022-09-09T12:42:43;0.60;;;0.60;;
21472;SDS011;10898;48.072;11.682;2022-09-09T12:44:55;0.82;;;0.50;;
21472;SDS011;10898;48.072;11.682;2022-09-09T12:47:00;0.88;;;0.50;;
21472;SDS011;10898;48.072;11.682;2022-09-09T12:49:04;1.17;;;0.68;;
21472;SDS011;10898;48.072;11.682;2022-09-09T12:51:16;0.98;;;0.60;;
21472;SDS011;10898;48.072;11.682;2022-09-09T12:53:23;1.30;;;0.60;;
21472;SDS011;10898;48.072;11.682;2022-09-09T12:55:38;0.85;;;0.60;;
21472;SDS011;10898;48.072;11.682;2022-09-09T12:57:40;0.80;;;0.55;;
21472;SDS011;10898;48.072;11.682;2022-09-09T12:59:44;0.85;;;0.57;;
21472;SDS011;10898;48.072;11.682;2022-09-09T13:01:56;0.75;;;0.63;;
21472;SDS011;10898;48.072;11.682;2022-09-09T13:03:59;1.55;;;0.70;;
21472;SDS011;10898;48.072;11.682;2022-09-09T13:06:12;0.85;;;0.70;;
21472;SDS011;10898;48.072;11.682;2022-09-09T13:08:19;1.15;;;0.60;;
21472;SDS011;10898;48.072;11.682;2022-09-09T13:10:23;1.02;;;0.70;;
21472;SDS011;10898;48.072;11.682;2022-09-09T13:12:47;1.30;;;0.60;;
21472;SDS011;10898;48.072;11.682;2022-09-09T13:14:54;1.25;;;0.68;;
21472;SDS011;10898;48.072;11.682;2022-09-09T13:17:01;0.98;;;0.55;;
21472;SDS011;10898;48.072;11.682;2022-09-09T13:19:12;1.23;;;0.50;;
21472;SDS011;10898;48.072;11.682;2022-09-09T13:21:17;1.85;;;0.70;;
21472;SDS011;10898;48.072;11.682;2022-09-09T13:23:20;0.60;;;0.60;;
21472;SDS011;10898;48.072;11.682;2022-09-09T13:27:28;0.77;;;0.60;;
21472;SDS011;10898;48.072;11.682;2022-09-09T13:29:32;0.50;;;0.50;;
21472;SDS011;10898;48.072;11.682;2022-09-09T13:31:36;0.40;;;0.40;;
21472;SDS011;10898;48.072;11.682;2022-09-09T13:33:38;0.50;;;0.50;;
21472;SDS011;10898;48.072;11.682;2022-09-09T13:35:54;0.80;;;0.50;;
21472;SDS011;10898;48.072;11.682;2022-09-09T13:38:07;0.75;;;0.75;;
21472;SDS011;10898;48.072;11.682;2022-09-09T13:40:20;0.93;;;0.50;;
21472;SDS011;10898;48.072;11.682;2022-09-09T13:42:25;1.92;;;0.60;;
21472;SDS011;10898;48.072;11.682;2022-09-09T13:44:30;1.30;;;0.60;;
21472;SDS011;10898;48.072;11.682;2022-09-09T13:46:38;0.85;;;0.63;;
21472;SDS011;10898;48.072;11.682;2022-09-09T13:48:53;2.38;;;0.50;;
21472;SDS011;10898;48.072;11.682;2022-09-09T13:51:02;0.50;;;0.50;;
21472;SDS011;10898;48.072;11.682;2022-09-09T13:53:06;1.17;;;0.57;;
21472;SDS011;10898;48.072;11.682;2022-09-09T13:55:09;0.63;;;0.50;;
21472;SDS011;10898;48.072;11.682;2022-09-09T13:57:19;0.68;;;0.60;;
21472;SDS011;10898;48.072;11.682;2022-09-09T13:59:22;1.35;;;0.57;;
21472;SDS011;10898;48.072;11.682;2022-09-09T14:01:38;0.45;;;0.45;;
21472;SDS011;10898;48.072;11.682;2022-09-09T14:03:40;1.30;;;0.80;;
21472;SDS011;10898;48.072;11.682;2022-09-09T14:05:43;0.85;;;0.57;;
21472;SDS011;10898;48.072;11.682;2022-09-09T14:07:47;1.23;;;0.47;;
21472;SDS011;10898;48.072;11.682;2022-09-09T14:09:53;2.53;;;0.57;;
21472;SDS011;10898;48.072;11.682;2022-09-09T14:11:55;1.08;;;0.85;;
21472;SDS011;10898;48.072;11.682;2022-09-09T14:13:57;1.47;;;0.60;;
21472;SDS011;10898;48.072;11.682;2022-09-09T14:15:59;0.73;;;0.57;;
21472;SDS011;10898;48.072;11.682;2022-09-09T14:18:02;0.65;;;0.65;;
21472;SDS011;10898;48.072;11.682;2022-09-09T14:20:06;1.08;;;0.60;;
21472;SDS011;10898;48.072;11.682;2022-09-09T14:22:10;2.85;;;0.82;;
21472;SDS011;10898;48.072;11.682;2022-09-09T14:24:14;0.70;;;0.70;;
21472;SDS011;10898;48.072;11.682;2022-09-09T14:26:19;0.70;;;0.70;;
21472;SDS011;10898;48.072;11.682;2022-09-09T14:28:22;0.70;;;0.60;;
21472;SDS011;10898;48.072;11.682;2022-09-09T14:30:43;0.98;;;0.70;;
21472;SDS011;10898;48.072;11.682;2022-09-09T14:32:45;0.73;;;0.73;;
21472;SDS011;10898;48.072;11.682;2022-09-09T14:34:47;3.17;;;0.70;;
21472;SDS011;10898;48.072;11.682;2022-09-09T14:36:52;2.85;;;0.70;;
21472;SDS011;10898;48.072;11.682;2022-09-09T14:38:54;1.27;;;0.60;;
21472;SDS011;10898;48.072;11.682;2022-09-09T14:40:56;2.45;;;0.70;;
21472;SDS011;10898;48.072;11.682;2022-09-09T14:42:58;1.80;;;0.80;;
21472;SDS011;10898;48.072;11.682;2022-09-09T14:45:00;0.88;;;0.82;;
21472;SDS011;10898;48.072;11.682;2022-09-09T14:47:02;1.30;;;0.60;;